TimePDT,TemperatureF,Dew PointF,Humidity,Sea Level PressureIn,VisibilityMPH,Wind Direction,Wind SpeedMPH,Gust SpeedMPH,PrecipitationIn,Events,Conditions,WindDirDegrees,DateUTC
12:15 AM,35.6,30.2,81,30.50,0.2,Calm,Calm,-,N/A,,Overcast,0,2011-11-01 07:15:00
12:35 AM,33.8,32.0,93,30.50,0.5,Calm,Calm,-,N/A,,Overcast,0,2011-11-01 07:35:00
12:55 AM,33.8,30.2,87,30.51,0.2,Calm,Calm,-,N/A,,Overcast,0,2011-11-01 07:55:00
1:15 AM,33.8,30.2,87,30.51,0.8,Calm,Calm,-,N/A,,Overcast,0,2011-11-01 08:15:00
1:35 AM,33.8,30.2,87,30.51,1.0,Calm,Calm,-,N/A,,Overcast,0,2011-11-01 08:35:00
1:55 AM,32.0,28.4,87,30.51,0.5,Calm,Calm,-,N/A,,Overcast,0,2011-11-01 08:55:00
2:15 AM,33.8,30.2,87,30.51,0.2,Calm,Calm,-,N/A,,Overcast,0,2011-11-01 09:15:00
2:35 AM,33.8,30.2,87,30.51,0.2,Calm,Calm,-,N/A,,Overcast,0,2011-11-01 09:35:00
2:55 AM,33.8,30.2,87,30.52,0.2,Calm,Calm,-,N/A,,Overcast,0,2011-11-01 09:55:00
3:15 AM,32.0,28.4,87,30.52,0.2,Calm,Calm,-,N/A,,Overcast,0,2011-11-01 10:15:00
3:35 AM,32.0,30.2,93,30.53,0.2,Calm,Calm,-,N/A,,Overcast,0,2011-11-01 10:35:00
3:55 AM,32.0,28.4,87,30.54,0.2,Calm,Calm,-,N/A,,Overcast,0,2011-11-01 10:55:00
4:15 AM,32.0,28.4,87,30.54,0.2,Calm,Calm,-,N/A,,Overcast,0,2011-11-01 11:15:00
4:35 AM,32.0,30.2,93,30.54,0.2,Calm,Calm,-,N/A,,Overcast,0,2011-11-01 11:35:00
4:55 AM,32.0,28.4,87,30.54,0.2,Calm,Calm,-,N/A,,Overcast,0,2011-11-01 11:55:00
5:15 AM,32.0,30.2,93,30.53,0.5,Calm,Calm,-,N/A,,Overcast,0,2011-11-01 12:15:00
5:35 AM,30.2,28.4,93,30.54,0.2,Calm,Calm,-,N/A,,Overcast,0,2011-11-01 12:35:00
6:15 AM,30.2,26.6,86,30.55,0.2,Calm,Calm,-,N/A,,Overcast,0,2011-11-01 13:15:00
6:35 AM,30.2,26.6,86,30.54,1.0,Calm,Calm,-,N/A,,Overcast,0,2011-11-01 13:35:00
6:55 AM,30.2,28.4,93,30.55,0.5,Calm,Calm,-,N/A,,Overcast,0,2011-11-01 13:55:00
7:15 AM,30.2,26.6,86,30.55,0.5,Calm,Calm,-,N/A,,Overcast,0,2011-11-01 14:15:00
7:35 AM,28.4,24.8,86,30.56,1.0,Calm,Calm,-,N/A,,Overcast,0,2011-11-01 14:35:00
7:55 AM,28.4,24.8,86,30.56,0.8,Calm,Calm,-,N/A,,Overcast,0,2011-11-01 14:55:00
8:15 AM,28.4,26.6,93,30.56,0.2,Calm,Calm,-,N/A,,Overcast,0,2011-11-01 15:15:00
8:35 AM,28.4,26.6,93,30.56,3.0,Calm,Calm,-,N/A,,Scattered Clouds,0,2011-11-01 15:35:00
8:55 AM,30.2,28.4,93,30.57,10.0,Calm,Calm,-,N/A,,Clear,0,2011-11-01 15:55:00
9:15 AM,30.2,28.4,93,30.57,3.0,Calm,Calm,-,N/A,,Mostly Cloudy,0,2011-11-01 16:15:00
9:35 AM,32.0,30.2,93,30.57,10.0,Calm,Calm,-,N/A,,Scattered Clouds,0,2011-11-01 16:35:00
10:15 AM,35.6,33.8,93,30.58,10.0,Calm,Calm,-,N/A,,Clear,0,2011-11-01 17:15:00
10:35 AM,37.4,35.6,93,30.58,10.0,Calm,Calm,-,N/A,,Clear,0,2011-11-01 17:35:00
11:15 AM,42.8,37.4,81,30.58,10.0,Calm,Calm,-,N/A,,Clear,0,2011-11-01 18:15:00
11:35 AM,44.6,37.4,76,30.58,10.0,Calm,Calm,-,N/A,,Clear,0,2011-11-01 18:35:00
11:55 AM,46.4,39.2,76,30.58,10.0,Calm,Calm,-,N/A,,Clear,0,2011-11-01 18:55:00
12:15 PM,46.4,37.4,71,30.59,10.0,Calm,Calm,-,N/A,,Clear,0,2011-11-01 19:15:00
12:35 PM,46.4,37.4,71,30.58,10.0,Calm,Calm,-,N/A,,Clear,0,2011-11-01 19:35:00
12:55 PM,46.4,37.4,71,30.57,10.0,Calm,Calm,-,N/A,,Clear,0,2011-11-01 19:55:00
1:15 PM,48.2,37.4,66,30.57,10.0,Calm,Calm,-,N/A,,Clear,0,2011-11-01 20:15:00
1:35 PM,48.2,37.4,66,30.56,10.0,Calm,Calm,-,N/A,,Clear,0,2011-11-01 20:35:00
1:55 PM,50.0,37.4,62,30.55,10.0,Calm,Calm,-,N/A,,Clear,0,2011-11-01 20:55:00
2:15 PM,48.2,37.4,66,30.55,10.0,Calm,Calm,-,N/A,,Clear,0,2011-11-01 21:15:00
2:35 PM,50.0,37.4,62,30.55,10.0,Calm,Calm,-,N/A,,Clear,0,2011-11-01 21:35:00
2:55 PM,50.0,37.4,62,30.54,10.0,SSW,3.5,-,N/A,,Clear,200,2011-11-01 21:55:00
3:15 PM,50.0,37.4,62,30.53,10.0,Calm,Calm,-,N/A,,Clear,0,2011-11-01 22:15:00
3:35 PM,50.0,35.6,58,30.52,10.0,Calm,Calm,-,N/A,,Clear,0,2011-11-01 22:35:00
3:55 PM,51.8,35.6,54,30.52,10.0,Calm,Calm,-,N/A,,Clear,0,2011-11-01 22:55:00
4:15 PM,50.0,37.4,62,30.52,10.0,Calm,Calm,-,N/A,,Clear,0,2011-11-01 23:15:00
4:35 PM,50.0,37.4,62,30.51,10.0,Calm,Calm,-,N/A,,Clear,0,2011-11-01 23:35:00
4:55 PM,50.0,37.4,62,30.51,10.0,Calm,Calm,-,N/A,,Clear,0,2011-11-01 23:55:00
5:15 PM,48.2,35.6,62,30.50,10.0,Calm,Calm,-,N/A,,Clear,0,2011-11-02 00:15:00
5:35 PM,46.4,37.4,71,30.49,10.0,Calm,Calm,-,N/A,,Clear,0,2011-11-02 00:35:00
5:55 PM,44.6,37.4,76,30.48,10.0,Calm,Calm,-,N/A,,Clear,0,2011-11-02 00:55:00
6:15 PM,42.8,35.6,76,30.48,10.0,Calm,Calm,-,N/A,,Clear,0,2011-11-02 01:15:00
6:35 PM,41.0,35.6,81,30.49,10.0,Calm,Calm,-,N/A,,Clear,0,2011-11-02 01:35:00
6:55 PM,37.4,33.8,87,30.49,10.0,Calm,Calm,-,N/A,,Clear,0,2011-11-02 01:55:00
7:15 PM,41.0,35.6,81,30.46,10.0,Calm,Calm,-,N/A,,Clear,0,2011-11-02 02:15:00
7:35 PM,41.0,35.6,81,30.46,10.0,Calm,Calm,-,N/A,,Clear,0,2011-11-02 02:35:00
7:55 PM,39.2,35.6,87,30.46,10.0,Calm,Calm,-,N/A,,Clear,0,2011-11-02 02:55:00
8:15 PM,37.4,33.8,87,30.46,10.0,North,3.5,-,N/A,,Clear,360,2011-11-02 03:15:00
8:35 PM,37.4,35.6,93,30.46,10.0,North,3.5,-,N/A,,Clear,10,2011-11-02 03:35:00
9:15 PM,39.2,35.6,87,30.44,10.0,Calm,Calm,-,N/A,,Clear,0,2011-11-02 04:15:00
9:35 PM,39.2,35.6,87,30.42,10.0,Calm,Calm,-,N/A,,Clear,0,2011-11-02 04:35:00
9:55 PM,37.4,33.8,87,30.42,10.0,Calm,Calm,-,N/A,,Clear,0,2011-11-02 04:55:00
10:15 PM,37.4,33.8,87,30.41,10.0,Calm,Calm,-,N/A,,Clear,0,2011-11-02 05:15:00
10:35 PM,37.4,33.8,87,30.41,10.0,Calm,Calm,-,N/A,,Clear,0,2011-11-02 05:35:00
10:55 PM,37.4,33.8,87,30.40,10.0,Calm,Calm,-,N/A,,Clear,0,2011-11-02 05:55:00
11:15 PM,35.6,33.8,93,30.39,10.0,Calm,Calm,-,N/A,,Clear,0,2011-11-02 06:15:00
11:35 PM,35.6,32.0,87,30.37,10.0,Calm,Calm,-,N/A,,Clear,0,2011-11-02 06:35:00
11:55 PM,35.6,30.2,81,30.36,10.0,Calm,Calm,-,N/A,,Clear,0,2011-11-02 06:55:00